createdAt,value
2023-05-19T00:00:01.026Z,64.47
2023-05-19T00:02:33.573Z,64.71
2023-05-19T00:05:03.106Z,64.67
2023-05-19T00:07:32.506Z,64.03
2023-05-19T00:09:59.496Z,63.81
2023-05-19T00:12:26.516Z,63.85
2023-05-19T00:14:53.389Z,62.96
2023-05-19T00:17:20.582Z,63.43
2023-05-19T00:19:47.228Z,63.37
2023-05-19T00:22:15.066Z,63.57
2023-05-19T00:24:42.040Z,63.52
2023-05-19T00:27:08.673Z,62.95
2023-05-19T00:29:35.263Z,63.97
2023-05-19T00:32:02.061Z,63.98
2023-05-19T00:34:28.812Z,63.12
2023-05-19T00:36:55.623Z,63.81
2023-05-19T00:39:22.400Z,63.70
2023-05-19T00:41:49.059Z,63.58
2023-05-19T00:44:15.741Z,64.01
2023-05-19T00:46:42.549Z,64.19
2023-05-19T00:49:09.255Z,64.48
2023-05-19T00:51:37.205Z,64.75
2023-05-19T00:54:04.222Z,64.77
2023-05-19T00:56:31.683Z,64.42
2023-05-19T00:59:00.841Z,65.55
2023-05-19T01:01:28.201Z,66.55
2023-05-19T01:03:59.024Z,66.09
2023-05-19T01:06:27.706Z,67.37
2023-05-19T01:08:54.364Z,67.37
2023-05-19T01:11:21.552Z,68.28
2023-05-19T01:13:48.517Z,68.08
2023-05-19T01:16:30.782Z,68.09
2023-05-19T01:19:05.129Z,68.56
2023-05-19T01:21:56.772Z,68.77
2023-05-19T01:24:30.580Z,68.80
2023-05-19T01:27:35.825Z,69.52
2023-05-19T01:30:25.860Z,69.32
2023-05-19T01:33:03.448Z,70.23
2023-05-19T01:35:31.197Z,70.47
2023-05-19T01:38:00.139Z,70.55
2023-05-19T01:40:28.191Z,70.71
2023-05-19T01:42:58.606Z,71.75
2023-05-19T01:45:28.013Z,71.35
2023-05-19T01:47:57.657Z,72.05
2023-05-19T01:50:24.746Z,71.76
2023-05-19T01:52:52.455Z,71.16
2023-05-19T01:55:19.282Z,71.36
2023-05-19T01:58:23.172Z,71.51
2023-05-19T02:00:59.463Z,71.93
2023-05-19T02:03:49.435Z,71.33
2023-05-19T02:06:19.719Z,71.50
2023-05-19T02:08:52.253Z,71.57
2023-05-19T02:11:25.836Z,71.48
2023-05-19T02:13:56.873Z,71.26
2023-05-19T02:16:28.623Z,71.17
2023-05-19T02:18:56.482Z,70.93
2023-05-19T02:21:23.221Z,71.12
2023-05-19T02:23:50.587Z,71.05
2023-05-19T02:26:19.845Z,72.23
2023-05-19T02:28:46.560Z,72.40
2023-05-19T02:31:13.210Z,72.51
2023-05-19T02:33:39.911Z,72.65
2023-05-19T02:36:06.945Z,71.84
2023-05-19T02:38:33.608Z,71.85
2023-05-19T02:41:00.709Z,72.24
2023-05-19T02:43:27.388Z,72.10
2023-05-19T02:45:54.101Z,71.91
2023-05-19T02:48:20.704Z,72.06
2023-05-19T02:50:47.334Z,72.05
2023-05-19T02:53:14.040Z,71.88
2023-05-19T02:55:40.708Z,71.89
2023-05-19T02:58:07.449Z,71.70
2023-05-19T03:00:34.377Z,71.55
2023-05-19T03:03:03.028Z,71.74
2023-05-19T03:05:32.694Z,72.09
2023-05-19T03:07:59.313Z,72.36
2023-05-19T03:10:25.967Z,72.28
2023-05-19T03:12:52.628Z,72.07
2023-05-19T03:15:19.364Z,72.60
2023-05-19T03:17:46.119Z,72.46
2023-05-19T03:20:13.012Z,72.39
2023-05-19T03:22:39.726Z,72.56
2023-05-19T03:25:06.616Z,72.23
2023-05-19T03:27:33.221Z,72.44
2023-05-19T03:29:59.932Z,72.69
2023-05-19T03:32:26.953Z,72.96
2023-05-19T03:34:53.884Z,72.73
2023-05-19T03:37:20.756Z,72.71
2023-05-19T03:39:47.414Z,73.07
2023-05-19T03:42:14.110Z,73.56
2023-05-19T03:44:40.784Z,72.83
2023-05-19T03:47:07.594Z,72.91
2023-05-19T03:49:53.139Z,72.80
2023-05-19T03:52:39.764Z,72.50
2023-05-19T03:55:16.598Z,72.29
2023-05-19T03:57:44.436Z,72.39
2023-05-19T04:00:12.333Z,72.56
2023-05-19T04:02:41.115Z,72.06
2023-05-19T04:05:08.573Z,72.08
2023-05-19T04:07:37.021Z,71.77
2023-05-19T04:10:05.570Z,71.18
2023-05-19T04:12:33.012Z,71.30
2023-05-19T04:15:00.169Z,71.49
2023-05-19T04:17:27.506Z,71.08
2023-05-19T04:19:55.057Z,70.62
2023-05-19T04:22:22.516Z,70.86
2023-05-19T04:24:51.611Z,70.44
2023-05-19T04:27:18.397Z,70.76
2023-05-19T04:29:48.305Z,69.90
2023-05-19T04:32:17.637Z,70.58
2023-05-19T04:34:47.434Z,69.79
2023-05-19T04:37:20.632Z,69.93
2023-05-19T04:39:48.257Z,70.17
2023-05-19T04:42:19.181Z,69.71
2023-05-19T04:44:51.645Z,69.67
2023-05-19T04:47:21.562Z,69.70
2023-05-19T04:49:49.350Z,69.56
2023-05-19T04:52:21.643Z,71.26
2023-05-19T04:54:48.428Z,70.01
2023-05-19T04:57:15.131Z,70.20
2023-05-19T04:59:41.799Z,69.38
2023-05-19T05:02:08.585Z,69.18
2023-05-19T05:04:38.409Z,69.82
2023-05-19T05:07:06.034Z,69.42
2023-05-19T05:09:33.346Z,69.64
2023-05-19T05:12:03.091Z,69.84
2023-05-19T05:14:30.579Z,69.69
2023-05-19T05:16:57.952Z,69.77
2023-05-19T05:19:25.154Z,69.84
2023-05-19T05:21:52.370Z,68.82
2023-05-19T05:24:20.433Z,69.04
2023-05-19T05:26:53.085Z,69.77
2023-05-19T05:29:20.868Z,69.71
2023-05-19T05:31:47.529Z,68.83
2023-05-19T05:34:14.436Z,70.02
2023-05-19T05:36:42.453Z,68.68
2023-05-19T05:39:09.711Z,67.19
2023-05-19T05:41:37.933Z,67.58
2023-05-19T05:44:10.235Z,67.82
2023-05-19T05:46:39.561Z,68.26
2023-05-19T05:49:06.635Z,67.86
2023-05-19T05:51:33.769Z,66.61
2023-05-19T05:54:02.825Z,66.88
2023-05-19T05:56:37.041Z,66.45
2023-05-19T05:59:05.904Z,66.86
2023-05-19T06:01:34.829Z,65.85
2023-05-19T06:04:03.631Z,67.10
2023-05-19T06:06:31.446Z,66.93
2023-05-19T06:08:59.142Z,66.80
2023-05-19T06:11:26.168Z,65.80
2023-05-19T06:13:54.277Z,66.01
2023-05-19T06:16:41.034Z,65.70
2023-05-19T06:19:08.047Z,65.55
2023-05-19T06:21:34.696Z,65.54
2023-05-19T06:24:01.453Z,65.79
2023-05-19T06:26:28.084Z,66.02
2023-05-19T06:28:54.867Z,65.42
2023-05-19T06:31:22.260Z,64.42
2023-05-19T06:33:53.793Z,64.87
2023-05-19T06:36:21.169Z,61.08
2023-05-19T06:38:48.588Z,60.41
2023-05-19T06:41:16.430Z,61.51
2023-05-19T06:43:47.024Z,61.39
2023-05-19T06:46:14.461Z,60.95
2023-05-19T06:48:43.275Z,58.45
2023-05-19T06:51:11.679Z,59.19
2023-05-19T06:53:40.920Z,59.12
2023-05-19T06:56:09.178Z,59.06
2023-05-19T06:58:39.487Z,58.33
2023-05-19T07:01:06.354Z,59.47
2023-05-19T07:03:39.241Z,59.91
2023-05-19T07:06:08.855Z,58.54
2023-05-19T07:08:37.233Z,57.76
2023-05-19T07:11:05.819Z,57.36
2023-05-19T07:13:33.013Z,57.50
2023-05-19T07:15:59.828Z,58.12
2023-05-19T07:18:31.796Z,57.53
2023-05-19T07:20:58.958Z,57.31
2023-05-19T07:23:25.877Z,55.92
2023-05-19T07:25:59.862Z,56.80
2023-05-19T07:28:26.529Z,57.79
2023-05-19T07:30:53.496Z,55.99
2023-05-19T07:33:20.746Z,55.11
2023-05-19T07:35:47.826Z,55.00
2023-05-19T07:38:14.604Z,57.23
2023-05-19T07:40:41.376Z,54.19
2023-05-19T07:43:08.211Z,54.86
2023-05-19T07:45:35.075Z,53.12
2023-05-19T07:48:01.818Z,54.46
2023-05-19T07:50:28.660Z,54.00
2023-05-19T07:52:55.861Z,54.37
2023-05-19T07:55:26.242Z,54.28
2023-05-19T07:57:52.965Z,50.51
2023-05-19T08:00:19.931Z,52.80
2023-05-19T08:02:47.839Z,51.69
2023-05-19T08:05:15.988Z,52.25
2023-05-19T08:07:42.724Z,52.21
2023-05-19T08:10:09.521Z,51.62
2023-05-19T08:12:36.152Z,50.69
2023-05-19T08:15:02.852Z,52.66
2023-05-19T08:17:29.556Z,52.65
2023-05-19T08:19:57.236Z,52.84
2023-05-19T08:22:23.940Z,52.58
2023-05-19T08:24:51.744Z,52.54
2023-05-19T08:27:18.643Z,53.08
2023-05-19T08:29:45.360Z,52.47
2023-05-19T08:32:13.396Z,53.50
2023-05-19T08:34:41.240Z,50.60
2023-05-19T08:37:07.988Z,51.46
2023-05-19T08:39:34.955Z,51.27
2023-05-19T08:42:02.490Z,50.88
2023-05-19T08:44:30.838Z,51.35
2023-05-19T08:47:02.806Z,50.33
2023-05-19T08:49:33.462Z,50.76
2023-05-19T08:52:15.200Z,51.63
2023-05-19T08:54:48.324Z,50.46
2023-05-19T08:57:15.247Z,50.28
2023-05-19T08:59:43.664Z,50.50
2023-05-19T09:02:14.061Z,49.78
2023-05-19T09:04:42.097Z,49.89
2023-05-19T09:07:09.401Z,47.21
2023-05-19T09:09:36.090Z,46.17
2023-05-19T09:12:03.225Z,46.27
2023-05-19T09:14:30.823Z,46.69
2023-05-19T09:16:57.694Z,47.58
2023-05-19T09:19:28.871Z,46.89
2023-05-19T09:22:03.792Z,45.88
2023-05-19T09:24:31.571Z,44.85
2023-05-19T09:27:00.083Z,42.58
2023-05-19T09:29:27.176Z,42.21
2023-05-19T09:32:00.520Z,38.11
2023-05-19T09:34:27.770Z,37.90
2023-05-19T09:36:54.633Z,37.09
2023-05-19T09:39:23.102Z,35.55
2023-05-19T09:41:54.289Z,37.80
2023-05-19T09:44:21.213Z,40.07
2023-05-19T09:46:49.721Z,41.13
2023-05-19T09:49:24.047Z,39.48
2023-05-19T09:51:57.982Z,39.69
2023-05-19T09:54:25.695Z,40.18
2023-05-19T09:57:00.115Z,40.66
2023-05-19T09:59:30.538Z,38.73
2023-05-19T10:01:59.969Z,39.94
2023-05-19T10:04:28.370Z,37.25
2023-05-19T10:06:59.441Z,35.75
2023-05-19T10:09:27.818Z,34.43
2023-05-19T10:11:59.473Z,34.17
2023-05-19T10:14:29.624Z,33.43
2023-05-19T10:16:59.822Z,31.88
2023-05-19T10:19:29.790Z,32.11
2023-05-19T10:21:57.022Z,32.78
2023-05-19T10:24:23.711Z,31.67
2023-05-19T10:26:54.486Z,32.55
2023-05-19T10:29:27.312Z,30.41
2023-05-19T10:31:57.158Z,32.24
2023-05-19T10:34:52.008Z,30.21
2023-05-19T10:37:28.828Z,29.92
2023-05-19T10:39:55.917Z,30.84
2023-05-19T10:42:50.793Z,33.23
2023-05-19T10:45:23.940Z,33.33
2023-05-19T10:47:51.464Z,32.10
2023-05-19T10:50:18.333Z,31.12
2023-05-19T10:52:53.915Z,31.18
2023-05-19T10:55:53.827Z,29.03
2023-05-19T10:58:39.538Z,29.59
2023-05-19T11:01:33.269Z,28.92
2023-05-19T11:04:15.767Z,30.31
2023-05-19T11:06:51.725Z,30.57
2023-05-19T11:09:20.981Z,29.13
2023-05-19T11:11:55.423Z,30.87
2023-05-19T11:14:24.167Z,31.06
2023-05-19T11:16:52.416Z,31.05
2023-05-19T11:19:31.267Z,31.83
2023-05-19T11:22:11.427Z,32.05
2023-05-19T11:24:47.875Z,33.75
2023-05-19T11:27:31.642Z,33.15
2023-05-19T11:29:59.492Z,34.61
2023-05-19T11:32:31.563Z,33.34
2023-05-19T11:34:58.416Z,33.40
2023-05-19T11:37:25.583Z,32.10
2023-05-19T11:39:53.158Z,31.06
2023-05-19T11:42:20.136Z,31.04
2023-05-19T11:44:47.097Z,29.82
2023-05-19T11:47:17.254Z,30.08
2023-05-19T11:49:51.962Z,31.97
2023-05-19T11:52:22.100Z,30.24
2023-05-19T11:54:49.197Z,32.71
2023-05-19T11:57:16.081Z,31.63
2023-05-19T11:59:47.999Z,30.61
2023-05-19T12:02:21.772Z,31.49
2023-05-19T12:04:51.770Z,31.42
2023-05-19T12:07:22.895Z,31.91
2023-05-19T12:09:55.293Z,32.66
2023-05-19T12:12:22.976Z,33.19
2023-05-19T12:14:51.282Z,33.97
2023-05-19T12:17:20.099Z,34.48
2023-05-19T12:19:48.729Z,35.24
2023-05-19T12:22:16.738Z,36.44
2023-05-19T12:24:45.159Z,33.02
2023-05-19T12:27:20.048Z,32.91
2023-05-19T12:29:53.686Z,32.42
2023-05-19T12:32:27.826Z,33.01
2023-05-19T12:34:59.124Z,33.24
2023-05-19T12:37:31.701Z,30.37
2023-05-19T12:39:58.807Z,29.51
2023-05-19T12:42:31.442Z,29.63
2023-05-19T12:45:01.522Z,29.49
2023-05-19T12:47:33.406Z,28.82
2023-05-19T12:50:00.276Z,28.55
2023-05-19T12:52:29.239Z,29.30
2023-05-19T12:55:07.240Z,31.93
2023-05-19T12:57:35.078Z,33.82
2023-05-19T13:00:17.653Z,33.10
2023-05-19T13:03:00.119Z,34.20
2023-05-19T13:05:28.455Z,34.18
2023-05-19T13:07:56.247Z,34.55
2023-05-19T13:10:23.314Z,32.22
2023-05-19T13:12:49.966Z,32.26
2023-05-19T13:15:16.659Z,31.53
2023-05-19T13:17:46.346Z,31.58
2023-05-19T13:20:14.513Z,30.76
2023-05-19T13:22:41.358Z,31.06
2023-05-19T13:25:08.731Z,32.48
2023-05-19T13:27:35.877Z,35.29
2023-05-19T13:30:02.957Z,37.99
2023-05-19T13:32:29.708Z,36.35
2023-05-19T13:34:57.349Z,35.95
2023-05-19T13:37:24.430Z,36.61
2023-05-19T13:39:51.295Z,37.12
2023-05-19T13:42:18.277Z,35.72
2023-05-19T13:44:46.278Z,35.09
2023-05-19T13:47:13.571Z,33.84
2023-05-19T13:49:41.378Z,32.67
2023-05-19T13:52:08.306Z,34.29
2023-05-19T13:54:35.070Z,34.74
2023-05-19T13:57:01.763Z,37.01
2023-05-19T13:59:28.545Z,36.13
2023-05-19T14:01:55.647Z,37.32
2023-05-19T14:04:23.768Z,38.68
2023-05-19T14:06:50.914Z,37.78
2023-05-19T14:09:17.703Z,39.19
2023-05-19T14:11:44.435Z,40.69
2023-05-19T14:14:11.640Z,41.22
2023-05-19T14:16:42.925Z,43.36
2023-05-19T14:19:12.518Z,40.92
2023-05-19T14:21:43.385Z,41.88
2023-05-19T14:24:12.566Z,41.80
2023-05-19T14:26:46.416Z,43.85
2023-05-19T14:29:18.557Z,42.42
2023-05-19T14:31:49.623Z,43.46
2023-05-19T14:34:25.595Z,42.81
2023-05-19T14:36:55.212Z,43.17
2023-05-19T14:39:24.326Z,43.99
2023-05-19T14:41:52.928Z,43.88
2023-05-19T14:44:19.696Z,44.33
2023-05-19T14:46:46.850Z,43.95
2023-05-19T14:49:13.983Z,45.12
2023-05-19T14:51:40.652Z,46.33
2023-05-19T14:54:08.326Z,46.29
2023-05-19T14:56:35.431Z,45.53
2023-05-19T14:59:04.401Z,47.03
2023-05-19T15:01:31.150Z,47.42
2023-05-19T15:03:58.717Z,47.47
2023-05-19T15:06:25.998Z,48.46
2023-05-19T15:08:52.716Z,49.06
2023-05-19T15:11:19.355Z,48.83
2023-05-19T15:13:47.174Z,49.27
2023-05-19T15:16:16.822Z,49.98
2023-05-19T15:18:44.514Z,49.25
2023-05-19T15:21:11.311Z,49.29
2023-05-19T15:23:38.961Z,49.03
2023-05-19T15:26:07.709Z,49.55
2023-05-19T15:28:36.574Z,49.57
2023-05-19T15:31:04.214Z,49.82
2023-05-19T15:33:32.397Z,49.20
2023-05-19T15:36:01.163Z,49.61
2023-05-19T15:38:30.091Z,50.29
2023-05-19T15:40:59.075Z,50.07
2023-05-19T15:43:27.668Z,49.73
2023-05-19T15:45:57.563Z,50.51
2023-05-19T15:48:29.285Z,50.92
2023-05-19T15:50:59.115Z,52.40
2023-05-19T15:53:27.420Z,51.01
2023-05-19T15:55:57.888Z,51.32
2023-05-19T15:58:26.316Z,52.78
2023-05-19T16:00:54.811Z,52.06
2023-05-19T16:03:23.520Z,52.56
2023-05-19T16:05:53.344Z,52.51
2023-05-19T16:08:21.028Z,52.54
2023-05-19T16:10:51.093Z,53.01
2023-05-19T16:13:19.213Z,53.29
2023-05-19T16:15:47.678Z,53.35
2023-05-19T16:18:18.917Z,53.88
2023-05-19T16:20:47.433Z,53.63
2023-05-19T16:23:15.650Z,54.21
2023-05-19T16:25:43.584Z,53.78
2023-05-19T16:28:11.847Z,54.02
2023-05-19T16:30:42.219Z,54.29
2023-05-19T16:33:10.607Z,54.85
2023-05-19T16:35:38.883Z,53.88
2023-05-19T16:38:07.268Z,54.45
2023-05-19T16:40:35.748Z,55.54
2023-05-19T16:43:04.099Z,56.03
2023-05-19T16:45:32.355Z,55.72
2023-05-19T16:47:59.475Z,55.63
2023-05-19T16:50:26.262Z,55.93
2023-05-19T16:52:53.781Z,56.27
2023-05-19T16:55:22.633Z,55.86
2023-05-19T16:57:55.384Z,55.67
2023-05-19T17:00:26.515Z,56.30
2023-05-19T17:02:54.980Z,56.57
2023-05-19T17:05:23.235Z,56.03
2023-05-19T17:07:53.076Z,56.86
2023-05-19T17:10:21.301Z,56.58
2023-05-19T17:12:49.808Z,56.53
2023-05-19T17:15:20.077Z,57.03
2023-05-19T17:17:48.409Z,57.39
2023-05-19T17:20:16.780Z,57.70
2023-05-19T17:22:45.169Z,57.66
2023-05-19T17:25:13.176Z,58.19
2023-05-19T17:27:41.688Z,57.51
2023-05-19T17:30:10.378Z,58.43
2023-05-19T17:32:39.861Z,57.81
2023-05-19T17:35:08.932Z,58.12
2023-05-19T17:37:37.243Z,57.91
2023-05-19T17:40:04.851Z,58.79
2023-05-19T17:42:36.238Z,58.50
2023-05-19T17:45:08.062Z,58.78
2023-05-19T17:47:36.654Z,58.99
2023-05-19T17:50:04.812Z,59.06
2023-05-19T17:52:33.648Z,59.16
2023-05-19T17:55:02.301Z,58.90
2023-05-19T17:57:33.194Z,59.45
2023-05-19T18:00:01.944Z,60.16
2023-05-19T18:02:32.955Z,59.53
2023-05-19T18:05:01.835Z,59.32
2023-05-19T18:07:32.262Z,60.44
2023-05-19T18:10:02.267Z,59.76
2023-05-19T18:12:30.474Z,60.32
2023-05-19T18:14:58.566Z,60.56
2023-05-19T18:17:27.855Z,60.28
2023-05-19T18:19:56.192Z,59.99
2023-05-19T18:22:24.737Z,60.24
2023-05-19T18:24:52.756Z,60.65
2023-05-19T18:27:21.657Z,60.45
2023-05-19T18:29:49.621Z,60.81
2023-05-19T18:32:18.392Z,61.27
2023-05-19T18:34:47.949Z,61.38
2023-05-19T18:37:16.284Z,61.68
2023-05-19T18:39:44.529Z,61.58
2023-05-19T18:42:12.732Z,62.38
2023-05-19T18:44:42.261Z,62.20
2023-05-19T18:47:12.240Z,62.49
2023-05-19T18:49:40.626Z,62.45
2023-05-19T18:52:09.532Z,62.57
2023-05-19T18:54:41.320Z,62.64
2023-05-19T18:57:10.830Z,62.76
2023-05-19T18:59:39.275Z,62.55
2023-05-19T19:02:10.006Z,62.90
2023-05-19T19:04:39.526Z,63.10
2023-05-19T19:07:07.305Z,63.35
2023-05-19T19:09:35.511Z,63.40
2023-05-19T19:12:04.075Z,63.53
2023-05-19T19:14:32.345Z,63.68
2023-05-19T19:17:01.246Z,63.81
2023-05-19T19:19:31.181Z,64.02
2023-05-19T19:21:59.640Z,64.29
2023-05-19T19:24:29.046Z,64.04
2023-05-19T19:26:57.271Z,63.91
2023-05-19T19:29:27.361Z,64.27
2023-05-19T19:31:54.454Z,64.08
2023-05-19T19:34:21.328Z,64.21
2023-05-19T19:36:48.162Z,64.46
2023-05-19T19:39:14.868Z,64.36
2023-05-19T19:41:41.509Z,64.94
2023-05-19T19:44:08.259Z,64.91
2023-05-19T19:46:35.713Z,65.06
2023-05-19T19:49:02.638Z,65.24
2023-05-19T19:51:29.493Z,65.39
2023-05-19T19:53:57.435Z,65.59
2023-05-19T19:56:25.053Z,66.26
2023-05-19T19:58:51.911Z,65.78
2023-05-19T20:01:23.451Z,65.67
2023-05-19T20:03:50.611Z,65.76
2023-05-19T20:06:17.404Z,65.73
2023-05-19T20:08:44.289Z,65.80
2023-05-19T20:11:11.044Z,65.64
2023-05-19T20:13:37.636Z,65.61
2023-05-19T20:16:04.764Z,65.95
2023-05-19T20:18:31.423Z,66.09
2023-05-19T20:20:58.111Z,66.14
2023-05-19T20:23:24.760Z,66.05
2023-05-19T20:26:10.288Z,66.29
2023-05-19T20:28:38.128Z,66.35
2023-05-19T20:31:05.144Z,67.09
2023-05-19T20:33:32.042Z,66.75
2023-05-19T20:35:58.681Z,66.88
2023-05-19T20:38:25.462Z,66.97
2023-05-19T20:40:52.692Z,67.19
2023-05-19T20:43:19.411Z,67.47
2023-05-19T20:45:46.461Z,67.46
2023-05-19T20:48:13.324Z,67.37
2023-05-19T20:50:40.103Z,67.06
2023-05-19T20:53:07.359Z,67.16
2023-05-19T20:55:36.172Z,67.51
2023-05-19T20:58:03.210Z,67.18
2023-05-19T21:00:30.742Z,67.64
2023-05-19T21:02:57.728Z,67.67
2023-05-19T21:05:24.735Z,67.73
2023-05-19T21:07:51.458Z,67.92
2023-05-19T21:10:18.404Z,67.94
2023-05-19T21:12:46.373Z,67.75
2023-05-19T21:15:13.101Z,67.82
2023-05-19T21:17:39.784Z,68.42
2023-05-19T21:20:06.975Z,68.26
2023-05-19T21:22:35.639Z,68.74
2023-05-19T21:25:02.359Z,68.86
2023-05-19T21:27:29.153Z,69.01
2023-05-19T21:29:55.824Z,68.60
2023-05-19T21:32:22.497Z,68.71
2023-05-19T21:34:49.141Z,68.50
2023-05-19T21:37:17.324Z,68.29
2023-05-19T21:39:44.640Z,68.68
2023-05-19T21:42:11.278Z,69.15
2023-05-19T21:44:38.046Z,69.12
2023-05-19T21:47:04.791Z,69.38
2023-05-19T21:49:31.615Z,69.21
2023-05-19T21:51:58.568Z,69.04
2023-05-19T21:54:25.329Z,69.16
2023-05-19T21:56:52.262Z,69.81
2023-05-19T21:59:23.106Z,69.49
2023-05-19T22:01:49.791Z,69.59
2023-05-19T22:04:18.528Z,69.52
2023-05-19T22:06:46.241Z,69.55
2023-05-19T22:09:12.931Z,69.61
2023-05-19T22:11:40.140Z,69.33
2023-05-19T22:14:07.065Z,69.82
2023-05-19T22:16:33.820Z,70.20
2023-05-19T22:19:00.673Z,70.33
2023-05-19T22:21:27.425Z,70.24
2023-05-19T22:23:54.084Z,70.19
2023-05-19T22:26:21.666Z,70.27
2023-05-19T22:28:49.418Z,70.29
2023-05-19T22:31:16.705Z,70.17
2023-05-19T22:33:43.437Z,70.51
2023-05-19T22:36:11.048Z,70.09
2023-05-19T22:38:37.826Z,70.28
2023-05-19T22:41:04.733Z,69.96
2023-05-19T22:43:31.460Z,70.87
2023-05-19T22:45:58.240Z,70.51
2023-05-19T22:48:24.913Z,70.93
2023-05-19T22:50:51.556Z,70.70
2023-05-19T22:53:18.229Z,70.56
2023-05-19T22:55:44.897Z,69.95
2023-05-19T22:58:11.540Z,70.26
2023-05-19T23:00:38.179Z,70.39
2023-05-19T23:03:04.935Z,71.48
2023-05-19T23:05:32.046Z,71.11
2023-05-19T23:07:58.988Z,71.51
2023-05-19T23:10:25.641Z,70.99
2023-05-19T23:12:52.255Z,71.13
2023-05-19T23:15:19.000Z,71.73
2023-05-19T23:17:45.759Z,71.80
2023-05-19T23:20:13.218Z,71.95
2023-05-19T23:22:39.873Z,72.08
2023-05-19T23:25:07.881Z,72.02
2023-05-19T23:27:37.656Z,72.02
2023-05-19T23:30:04.750Z,72.24
2023-05-19T23:32:31.440Z,72.49
2023-05-19T23:34:58.180Z,72.64
2023-05-19T23:37:24.947Z,72.63
2023-05-19T23:39:51.619Z,73.01
2023-05-19T23:42:18.290Z,73.09
2023-05-19T23:44:44.971Z,73.01
2023-05-19T23:47:11.728Z,73.29
2023-05-19T23:49:38.643Z,73.40
2023-05-19T23:52:05.777Z,73.55
2023-05-19T23:54:32.448Z,73.66
2023-05-19T23:56:59.423Z,74.28
2023-05-19T23:59:26.113Z,73.88
